Time;durP1;ratioP1;P1;durP2;ratioP2;P2;SDS_P1;SDS_P2;PMS_P1;PMS_P2;Temp;Humidity;BMP_temperature;BMP_pressure;BME280_temperature;BME280_humidity;BME280_pressure;Samples;Min_cycle;Max_cycle;Signal;HPM_P1;HPM_P2
2022/09/02 00:02:16;;;;;;;4.25;1.67;;;;;;;;;;5047457;28;20036;-59
2022/09/02 00:04:42;;;;;;;2.25;1.73;;;;;;;;;;5050745;28;20108;-60
2022/09/02 00:07:08;;;;;;;2.58;1.60;;;;;;;;;;5050433;28;20028;-59
2022/09/02 00:09:36;;;;;;;4.15;1.73;;;;;;;;;;5054450;28;20045;-59
2022/09/02 00:12:02;;;;;;;4.10;1.70;;;;;;;;;;5049836;28;20030;-60
2022/09/02 00:14:33;;;;;;;4.28;1.90;;;;;;;;;;5051762;28;20051;-59
2022/09/02 00:17:00;;;;;;;2.83;2.05;;;;;;;;;;5054341;28;20404;-59
2022/09/02 00:19:26;;;;;;;3.13;1.63;;;;;;;;;;5055074;28;20112;-59
2022/09/02 00:21:53;;;;;;;5.40;2.75;;;;;;;;;;5051013;28;20070;-59
2022/09/02 00:24:20;;;;;;;7.22;1.60;;;;;;;;;;5053070;28;20029;-59
2022/09/02 00:26:46;;;;;;;5.82;1.70;;;;;;;;;;5053589;28;20384;-59
2022/09/02 00:29:14;;;;;;;3.83;1.73;;;;;;;;;;5052730;28;20477;-59
2022/09/02 00:31:41;;;;;;;2.65;1.65;;;;;;;;;;5048769;28;20040;-59
2022/09/02 00:34:07;;;;;;;3.72;1.60;;;;;;;;;;5054176;28;20029;-59
2022/09/02 00:36:33;;;;;;;4.38;1.40;;;;;;;;;;5053468;28;20036;-60
2022/09/02 00:38:59;;;;;;;5.75;1.75;;;;;;;;;;5041374;28;20115;-59
2022/09/02 00:41:26;;;;;;;1.98;1.42;;;;;;;;;;5052933;28;20369;-60
2022/09/02 00:44:06;;;;;;;4.10;1.70;;;;;;;;;;5052074;28;20028;-60
2022/09/02 00:46:33;;;;;;;4.22;1.60;;;;;;;;;;5051146;28;20032;-59
2022/09/02 00:49:05;;;;;;;4.50;1.35;;;;;;;;;;5053309;28;20476;-59
2022/09/02 00:51:52;;;;;;;4.65;1.40;;;;;;;;;;5052021;28;20434;-59
2022/09/02 00:54:19;;;;;;;5.35;1.58;;;;;;;;;;5054279;28;20021;-59
2022/09/02 00:56:46;;;;;;;3.97;1.48;;;;;;;;;;5049305;28;20443;-59
2022/09/02 00:59:14;;;;;;;3.80;1.63;;;;;;;;;;5052692;28;20434;-59
2022/09/02 01:01:40;;;;;;;2.72;1.58;;;;;;;;;;5047290;28;20037;-60
2022/09/02 01:04:06;;;;;;;3.00;1.48;;;;;;;;;;5047823;28;20025;-59
2022/09/02 01:06:32;;;;;;;2.70;1.55;;;;;;;;;;5053026;28;20068;-59
2022/09/02 01:09:07;;;;;;;1.80;1.20;;;;;;;;;;5053856;28;20045;-59
2022/09/02 01:11:38;;;;;;;3.67;1.70;;;;;;;;;;5052574;28;20025;-59
2022/09/02 01:14:05;;;;;;;1.90;1.40;;;;;;;;;;5049579;28;20116;-59
2022/09/02 01:16:36;;;;;;;2.95;2.10;;;;;;;;;;5051379;28;20025;-59
2022/09/02 01:19:06;;;;;;;2.90;1.40;;;;;;;;;;5051952;28;20053;-59
2022/09/02 01:21:33;;;;;;;2.10;1.40;;;;;;;;;;5052886;28;20029;-59
2022/09/02 01:23:59;;;;;;;3.05;1.58;;;;;;;;;;5052478;28;20040;-59
2022/09/02 01:26:25;;;;;;;3.00;1.40;;;;;;;;;;5053053;28;20078;-59
2022/09/02 01:28:51;;;;;;;2.95;1.60;;;;;;;;;;5051879;28;20033;-59
2022/09/02 01:31:17;;;;;;;2.47;1.70;;;;;;;;;;5051864;28;20116;-59
2022/09/02 01:33:43;;;;;;;4.00;1.40;;;;;;;;;;5050654;28;20020;-60
2022/09/02 01:36:09;;;;;;;1.83;1.52;;;;;;;;;;5052170;28;20407;-59
2022/09/02 01:38:35;;;;;;;4.72;1.38;;;;;;;;;;5053836;28;20086;-59
2022/09/02 01:41:02;;;;;;;3.85;1.70;;;;;;;;;;5051466;28;20036;-59
2022/09/02 01:43:28;;;;;;;3.50;1.65;;;;;;;;;;5050168;28;20041;-59
2022/09/02 01:45:55;;;;;;;4.20;1.55;;;;;;;;;;5051467;28;20025;-59
2022/09/02 01:48:21;;;;;;;3.70;1.33;;;;;;;;;;5052309;28;20021;-59
2022/09/02 01:50:51;;;;;;;3.50;1.50;;;;;;;;;;5049685;28;20527;-59
2022/09/02 01:53:17;;;;;;;3.80;1.50;;;;;;;;;;5050904;28;20025;-60
2022/09/02 01:55:43;;;;;;;6.25;1.63;;;;;;;;;;5050537;28;20029;-59
2022/09/02 01:58:10;;;;;;;6.78;1.55;;;;;;;;;;5052313;28;20392;-59
2022/09/02 02:00:36;;;;;;;3.78;1.60;;;;;;;;;;5050628;28;20152;-59
2022/09/02 02:03:02;;;;;;;2.15;1.45;;;;;;;;;;5051746;28;20038;-59
2022/09/02 02:05:29;;;;;;;3.90;1.70;;;;;;;;;;5050969;28;20039;-59
2022/09/02 02:07:55;;;;;;;3.60;1.77;;;;;;;;;;5050497;28;20059;-59
2022/09/02 02:10:21;;;;;;;3.20;1.40;;;;;;;;;;5051370;28;20515;-61
2022/09/02 02:12:47;;;;;;;2.53;1.50;;;;;;;;;;5052809;28;20480;-59
2022/09/02 02:15:16;;;;;;;2.90;1.30;;;;;;;;;;5046439;28;20384;-59
2022/09/02 02:17:42;;;;;;;2.92;1.60;;;;;;;;;;5052416;28;20026;-60
2022/09/02 02:20:09;;;;;;;4.47;1.23;;;;;;;;;;5051155;28;20029;-60
2022/09/02 02:22:36;;;;;;;2.40;1.38;;;;;;;;;;5051908;28;20021;-59
2022/09/02 02:25:02;;;;;;;4.25;1.55;;;;;;;;;;5047732;28;20029;-60
2022/09/02 02:27:28;;;;;;;4.80;1.88;;;;;;;;;;5043654;28;20036;-59
2022/09/02 02:29:54;;;;;;;2.50;1.70;;;;;;;;;;5048637;28;20385;-59
2022/09/02 02:32:20;;;;;;;1.55;1.13;;;;;;;;;;5048282;28;20033;-59
2022/09/02 02:34:46;;;;;;;4.25;1.80;;;;;;;;;;5051346;28;20029;-59
2022/09/02 02:37:12;;;;;;;2.80;1.60;;;;;;;;;;5052507;28;20033;-59
2022/09/02 02:39:39;;;;;;;5.38;1.67;;;;;;;;;;5050510;28;20563;-60
2022/09/02 02:42:06;;;;;;;7.93;1.80;;;;;;;;;;5050101;28;20089;-59
2022/09/02 02:44:33;;;;;;;1.67;1.40;;;;;;;;;;5050224;28;20033;-59
2022/09/02 02:46:59;;;;;;;2.15;1.35;;;;;;;;;;5049308;28;20536;-59
2022/09/02 02:49:26;;;;;;;3.33;1.42;;;;;;;;;;5051706;28;20029;-59
2022/09/02 02:51:52;;;;;;;1.83;1.45;;;;;;;;;;5050612;28;20104;-59
2022/09/02 02:54:18;;;;;;;2.70;1.23;;;;;;;;;;5051774;28;20033;-59
2022/09/02 02:56:44;;;;;;;2.00;1.60;;;;;;;;;;5051209;28;20025;-59
2022/09/02 02:59:10;;;;;;;2.50;1.45;;;;;;;;;;5050147;28;20121;-59
2022/09/02 03:01:37;;;;;;;2.85;1.60;;;;;;;;;;5050894;28;20025;-59
2022/09/02 03:04:03;;;;;;;2.60;1.67;;;;;;;;;;5051360;28;20032;-59
2022/09/02 03:06:29;;;;;;;3.70;1.30;;;;;;;;;;5049691;28;20036;-59
2022/09/02 03:08:56;;;;;;;1.70;1.17;;;;;;;;;;5050717;28;20037;-59
2022/09/02 03:11:22;;;;;;;2.45;1.27;;;;;;;;;;5050659;28;20388;-59
2022/09/02 03:13:51;;;;;;;2.22;1.42;;;;;;;;;;5052019;28;20017;-59
2022/09/02 03:16:18;;;;;;;2.45;1.40;;;;;;;;;;5048077;28;20033;-59
2022/09/02 03:18:45;;;;;;;5.32;1.30;;;;;;;;;;5050525;28;20017;-59
2022/09/02 03:21:12;;;;;;;4.07;1.75;;;;;;;;;;5050361;28;20040;-59
2022/09/02 03:23:38;;;;;;;5.15;1.65;;;;;;;;;;5049383;28;20502;-59
2022/09/02 03:26:09;;;;;;;2.60;1.38;;;;;;;;;;5041098;28;20033;-60
2022/09/02 03:28:35;;;;;;;2.20;1.70;;;;;;;;;;5051638;28;20021;-59
2022/09/02 03:31:01;;;;;;;1.98;1.30;;;;;;;;;;5048742;28;20479;-59
2022/09/02 03:33:27;;;;;;;2.20;1.50;;;;;;;;;;5050773;28;20033;-59
2022/09/02 03:35:53;;;;;;;2.20;1.30;;;;;;;;;;5051221;28;20017;-59
2022/09/02 03:38:18;;;;;;;2.95;1.38;;;;;;;;;;5051504;28;20135;-59
2022/09/02 03:40:44;;;;;;;2.92;1.55;;;;;;;;;;5049126;28;20034;-59
2022/09/02 03:43:11;;;;;;;1.90;1.35;;;;;;;;;;5051257;28;20114;-59
2022/09/02 03:45:40;;;;;;;1.92;1.48;;;;;;;;;;5049805;28;20025;-59
2022/09/02 03:48:06;;;;;;;4.93;1.60;;;;;;;;;;5051695;28;20036;-59
2022/09/02 03:50:34;;;;;;;2.10;1.67;;;;;;;;;;5051134;28;20025;-59
2022/09/02 03:53:00;;;;;;;5.35;1.35;;;;;;;;;;5045270;28;20104;-59
2022/09/02 03:55:26;;;;;;;3.13;0.98;;;;;;;;;;5047824;28;20029;-59
2022/09/02 03:57:52;;;;;;;2.88;1.60;;;;;;;;;;5051268;28;20021;-59
2022/09/02 04:00:20;;;;;;;5.80;2.10;;;;;;;;;;5050975;28;20091;-59
2022/09/02 04:02:46;;;;;;;5.57;1.80;;;;;;;;;;5046497;28;20055;-59
2022/09/02 04:05:12;;;;;;;2.42;1.50;;;;;;;;;;5050773;28;20029;-59
2022/09/02 04:07:39;;;;;;;2.28;1.20;;;;;;;;;;5047495;28;20025;-59
2022/09/02 04:10:07;;;;;;;2.72;1.42;;;;;;;;;;5048293;28;20492;-60
2022/09/02 04:12:33;;;;;;;3.17;1.30;;;;;;;;;;5051241;28;20036;-59
2022/09/02 04:14:59;;;;;;;2.65;1.65;;;;;;;;;;5050473;28;20108;-59
2022/09/02 04:17:25;;;;;;;4.05;1.40;;;;;;;;;;5049085;28;20032;-59
2022/09/02 04:19:54;;;;;;;2.00;1.50;;;;;;;;;;5050002;28;20075;-60
2022/09/02 04:22:20;;;;;;;2.38;1.40;;;;;;;;;;5049051;28;20065;-59
2022/09/02 04:24:46;;;;;;;2.63;1.55;;;;;;;;;;5046615;28;20025;-60
2022/09/02 04:27:12;;;;;;;3.35;1.35;;;;;;;;;;5047269;28;20345;-59
2022/09/02 04:29:38;;;;;;;4.47;1.67;;;;;;;;;;5049260;28;20025;-60
2022/09/02 04:32:04;;;;;;;1.80;1.20;;;;;;;;;;5042434;28;20046;-60
2022/09/02 04:34:30;;;;;;;1.55;1.10;;;;;;;;;;5047997;28;20457;-59
2022/09/02 04:36:56;;;;;;;1.77;1.40;;;;;;;;;;5048853;28;20036;-60
2022/09/02 04:39:22;;;;;;;3.05;1.30;;;;;;;;;;5050561;28;20029;-60
2022/09/02 04:41:48;;;;;;;2.03;1.67;;;;;;;;;;5041472;28;20037;-59
2022/09/02 04:44:13;;;;;;;2.20;1.20;;;;;;;;;;5044913;28;20076;-60
2022/09/02 04:46:39;;;;;;;3.63;1.50;;;;;;;;;;5046731;28;20039;-60
2022/09/02 04:49:06;;;;;;;2.03;1.40;;;;;;;;;;5051189;28;20112;-59
2022/09/02 04:51:32;;;;;;;4.55;1.50;;;;;;;;;;5048178;28;20875;-59
2022/09/02 04:53:58;;;;;;;2.20;1.25;;;;;;;;;;5051547;28;20025;-59
2022/09/02 04:56:26;;;;;;;2.58;1.33;;;;;;;;;;5049255;28;20032;-59
2022/09/02 04:58:53;;;;;;;2.33;1.55;;;;;;;;;;5046895;28;20033;-59
2022/09/02 05:01:20;;;;;;;2.67;1.40;;;;;;;;;;5048661;28;20044;-59
2022/09/02 05:03:47;;;;;;;2.80;1.60;;;;;;;;;;5049542;28;20028;-59
2022/09/02 05:06:15;;;;;;;4.25;1.30;;;;;;;;;;5052590;28;20487;-59
2022/09/02 05:08:41;;;;;;;4.18;1.45;;;;;;;;;;5048731;28;20481;-59
2022/09/02 05:11:08;;;;;;;1.83;1.25;;;;;;;;;;5053841;28;20033;-59
2022/09/02 05:13:34;;;;;;;6.60;1.30;;;;;;;;;;5053824;28;20116;-60
2022/09/02 05:16:01;;;;;;;2.88;1.42;;;;;;;;;;5041590;28;20112;-60
2022/09/02 05:18:27;;;;;;;2.22;1.08;;;;;;;;;;5046591;28;20029;-59
2022/09/02 05:20:53;;;;;;;7.97;2.17;;;;;;;;;;5051638;28;20025;-59
2022/09/02 05:23:19;;;;;;;5.15;1.38;;;;;;;;;;5053655;28;20028;-59
2022/09/02 05:25:45;;;;;;;2.78;1.38;;;;;;;;;;5053792;28;20067;-60
2022/09/02 05:28:11;;;;;;;3.65;1.63;;;;;;;;;;5053563;28;20021;-59
2022/09/02 05:30:38;;;;;;;2.33;1.17;;;;;;;;;;5053347;28;20025;-59
2022/09/02 05:33:05;;;;;;;2.97;1.38;;;;;;;;;;5052134;28;20031;-59
2022/09/02 05:35:31;;;;;;;5.30;1.48;;;;;;;;;;5053337;28;20029;-60
2022/09/02 05:37:57;;;;;;;4.32;1.50;;;;;;;;;;5043560;28;20053;-59
2022/09/02 05:40:23;;;;;;;3.70;1.40;;;;;;;;;;5054802;28;20043;-59
2022/09/02 05:42:49;;;;;;;2.70;1.50;;;;;;;;;;5054640;28;20033;-59
2022/09/02 05:45:15;;;;;;;2.67;1.27;;;;;;;;;;5051756;28;20400;-60
2022/09/02 05:47:41;;;;;;;3.13;1.30;;;;;;;;;;5053058;28;20025;-60
2022/09/02 05:50:08;;;;;;;2.88;1.50;;;;;;;;;;5057370;28;20682;-60
2022/09/02 05:52:34;;;;;;;3.30;1.45;;;;;;;;;;5062200;28;20044;-60
2022/09/02 05:55:00;;;;;;;4.80;1.33;;;;;;;;;;5056246;28;20464;-59
2022/09/02 05:57:26;;;;;;;1.92;1.50;;;;;;;;;;5050790;28;20043;-60
2022/09/02 05:59:55;;;;;;;1.77;1.45;;;;;;;;;;5050687;28;20428;-60
2022/09/02 06:02:22;;;;;;;2.65;1.80;;;;;;;;;;5050703;28;20025;-60
2022/09/02 06:04:50;;;;;;;3.17;1.48;;;;;;;;;;5045963;28;20036;-59
2022/09/02 06:07:17;;;;;;;2.00;1.42;;;;;;;;;;5048109;28;20472;-59
2022/09/02 06:09:43;;;;;;;2.78;1.08;;;;;;;;;;5050896;28;20056;-61
2022/09/02 06:12:10;;;;;;;2.92;1.50;;;;;;;;;;5044768;28;20025;-60
2022/09/02 06:14:36;;;;;;;3.42;1.50;;;;;;;;;;5045257;28;20110;-59
2022/09/02 06:17:04;;;;;;;7.72;1.52;;;;;;;;;;5043325;28;20045;-59
2022/09/02 06:19:31;;;;;;;3.17;1.38;;;;;;;;;;5048223;28;20476;-60
2022/09/02 06:21:58;;;;;;;1.60;1.33;;;;;;;;;;5047629;28;20035;-59
2022/09/02 06:24:25;;;;;;;3.13;1.40;;;;;;;;;;5037924;28;20025;-59
2022/09/02 06:26:52;;;;;;;3.95;1.40;;;;;;;;;;5046036;28;20070;-60
2022/09/02 06:29:18;;;;;;;2.28;1.45;;;;;;;;;;5045981;28;20021;-60
2022/09/02 06:31:45;;;;;;;1.80;1.38;;;;;;;;;;5042164;28;20025;-60
2022/09/02 06:34:12;;;;;;;2.55;1.40;;;;;;;;;;5042508;28;20485;-60
2022/09/02 06:36:39;;;;;;;2.30;1.50;;;;;;;;;;5043291;28;20036;-60
2022/09/02 06:39:05;;;;;;;5.53;1.55;;;;;;;;;;5041011;28;20082;-59
2022/09/02 06:41:32;;;;;;;4.40;1.65;;;;;;;;;;5051458;28;20028;-59
2022/09/02 06:43:59;;;;;;;4.75;1.77;;;;;;;;;;5049573;28;20033;-60
2022/09/02 06:46:26;;;;;;;3.20;1.65;;;;;;;;;;5047842;28;20029;-59
2022/09/02 06:48:53;;;;;;;3.15;1.52;;;;;;;;;;5048162;28;20115;-60
2022/09/02 06:51:22;;;;;;;4.32;1.58;;;;;;;;;;5046211;28;20132;-60
2022/09/02 06:53:48;;;;;;;2.50;1.50;;;;;;;;;;5041968;28;20032;-59
2022/09/02 06:56:14;;;;;;;3.72;1.50;;;;;;;;;;5049845;28;20025;-60
2022/09/02 06:58:40;;;;;;;2.83;1.42;;;;;;;;;;5052221;28;20524;-60
2022/09/02 07:01:06;;;;;;;3.13;1.45;;;;;;;;;;5049460;28;20555;-60
2022/09/02 07:06:18;;;;;;;4.97;1.83;;;;;;;;;;5045855;28;20080;-59
2022/09/02 07:08:44;;;;;;;2.92;1.80;;;;;;;;;;5049948;28;20025;-60
2022/09/02 07:11:19;;;;;;;3.70;1.52;;;;;;;;;;5050432;28;20036;-59
2022/09/02 07:13:45;;;;;;;4.10;2.00;;;;;;;;;;5048954;28;20448;-59
2022/09/02 07:16:11;;;;;;;3.30;1.60;;;;;;;;;;5048812;28;20025;-60
2022/09/02 07:18:37;;;;;;;4.55;1.70;;;;;;;;;;5050620;28;20037;-61
2022/09/02 07:21:03;;;;;;;3.53;1.33;;;;;;;;;;5043389;28;20373;-59
2022/09/02 07:23:29;;;;;;;3.65;2.08;;;;;;;;;;5050863;28;20033;-59
2022/09/02 07:25:55;;;;;;;2.20;1.45;;;;;;;;;;5051137;28;20489;-59
2022/09/02 07:28:22;;;;;;;2.58;1.40;;;;;;;;;;5046802;28;20025;-59
2022/09/02 07:30:49;;;;;;;3.65;1.45;;;;;;;;;;5039549;28;20032;-61
2022/09/02 07:33:15;;;;;;;4.65;1.80;;;;;;;;;;5051706;28;20100;-60
2022/09/02 07:35:41;;;;;;;6.80;1.67;;;;;;;;;;5047687;28;20025;-60
2022/09/02 07:38:08;;;;;;;4.82;1.58;;;;;;;;;;5049336;28;20041;-60
2022/09/02 07:40:35;;;;;;;2.35;1.33;;;;;;;;;;5048829;28;20032;-61
2022/09/02 07:43:02;;;;;;;4.85;1.60;;;;;;;;;;5050514;28;20037;-61
2022/09/02 07:45:28;;;;;;;7.28;1.48;;;;;;;;;;5051539;28;20044;-61
2022/09/02 07:47:54;;;;;;;3.58;1.63;;;;;;;;;;5050634;28;20021;-57
2022/09/02 07:50:20;;;;;;;3.22;1.63;;;;;;;;;;5051018;28;20472;-61
2022/09/02 07:52:47;;;;;;;5.28;1.30;;;;;;;;;;5049993;28;20372;-61
2022/09/02 07:55:13;;;;;;;2.33;1.40;;;;;;;;;;5048626;28;20044;-62
2022/09/02 07:57:39;;;;;;;4.60;1.77;;;;;;;;;;5049990;28;20373;-61
2022/09/02 08:00:06;;;;;;;4.43;1.23;;;;;;;;;;5049136;28;20029;-61
2022/09/02 08:02:33;;;;;;;6.72;1.63;;;;;;;;;;5049974;28;20025;-61
2022/09/02 08:04:59;;;;;;;3.17;1.33;;;;;;;;;;5046389;28;20033;-61
2022/09/02 08:07:25;;;;;;;5.43;1.33;;;;;;;;;;5049278;28;20078;-61
2022/09/02 08:09:52;;;;;;;3.33;1.27;;;;;;;;;;5050278;28;20041;-61
2022/09/02 08:12:18;;;;;;;3.70;1.30;;;;;;;;;;5051519;28;20810;-60
2022/09/02 08:14:44;;;;;;;3.20;1.20;;;;;;;;;;5046787;28;20059;-60
2022/09/02 08:17:10;;;;;;;2.65;1.50;;;;;;;;;;5051280;28;20716;-61
2022/09/02 08:19:36;;;;;;;3.92;1.42;;;;;;;;;;5049847;28;20036;-61
2022/09/02 08:22:04;;;;;;;3.53;1.30;;;;;;;;;;5050659;28;20033;-60
2022/09/02 08:24:31;;;;;;;5.55;1.40;;;;;;;;;;5050932;28;20078;-61
2022/09/02 08:26:57;;;;;;;2.30;0.90;;;;;;;;;;5051858;28;20368;-60
2022/09/02 08:29:23;;;;;;;2.88;1.27;;;;;;;;;;5046809;28;20032;-60
2022/09/02 08:31:49;;;;;;;3.10;1.17;;;;;;;;;;5050462;28;20029;-60
2022/09/02 08:34:15;;;;;;;4.03;1.10;;;;;;;;;;5050731;28;20029;-61
2022/09/02 08:36:42;;;;;;;1.50;0.88;;;;;;;;;;5052464;28;20040;-61
2022/09/02 08:39:08;;;;;;;4.93;0.80;;;;;;;;;;5053865;28;20068;-60
2022/09/02 08:41:45;;;;;;;2.08;0.93;;;;;;;;;;5051767;28;20029;-61
2022/09/02 08:44:13;;;;;;;2.00;0.90;;;;;;;;;;5054684;28;20111;-60
2022/09/02 08:46:40;;;;;;;1.70;1.00;;;;;;;;;;5053388;28;20043;-61
2022/09/02 08:49:24;;;;;;;1.52;0.80;;;;;;;;;;5054098;28;20028;-61
2022/09/02 08:51:51;;;;;;;1.45;0.43;;;;;;;;;;5034240;28;20128;-61
2022/09/02 08:54:46;;;;;;;2.60;0.60;;;;;;;;;;5033448;28;21373;-61
2022/09/02 08:57:12;;;;;;;2.75;0.73;;;;;;;;;;5027394;28;20056;-61
2022/09/02 08:59:39;;;;;;;1.75;0.70;;;;;;;;;;5039735;28;20029;-60
2022/09/02 09:02:26;;;;;;;1.00;0.60;;;;;;;;;;5052488;28;20048;-61
2022/09/02 09:05:11;;;;;;;1.70;0.60;;;;;;;;;;5040398;28;20096;-60
2022/09/02 09:07:39;;;;;;;0.93;0.60;;;;;;;;;;5040647;28;20039;-61
2022/09/02 09:10:10;;;;;;;1.83;0.90;;;;;;;;;;5032449;28;20547;-61
2022/09/02 09:12:39;;;;;;;1.73;0.65;;;;;;;;;;5045500;28;20032;-60
2022/09/02 09:15:11;;;;;;;2.78;0.80;;;;;;;;;;5048708;28;20048;-60
2022/09/02 09:17:45;;;;;;;4.85;1.20;;;;;;;;;;5052228;28;20033;-60
2022/09/02 09:20:16;;;;;;;1.30;0.70;;;;;;;;;;5053976;28;20427;-60
2022/09/02 09:22:42;;;;;;;0.95;0.50;;;;;;;;;;5052902;28;20492;-61
2022/09/02 09:25:10;;;;;;;1.67;0.55;;;;;;;;;;5054218;28;20439;-60
2022/09/02 09:27:36;;;;;;;0.60;0.40;;;;;;;;;;5046877;28;20056;-61
2022/09/02 09:30:04;;;;;;;1.85;0.50;;;;;;;;;;5041806;28;20464;-61
2022/09/02 09:32:40;;;;;;;1.08;0.52;;;;;;;;;;5047859;28;20053;-60
2022/09/02 09:35:10;;;;;;;1.10;0.40;;;;;;;;;;5052238;28;20060;-60
2022/09/02 09:37:38;;;;;;;1.40;0.40;;;;;;;;;;5046561;28;20231;-60
2022/09/02 09:40:21;;;;;;;2.13;0.50;;;;;;;;;;5051102;28;20033;-60
2022/09/02 09:42:48;;;;;;;1.92;0.60;;;;;;;;;;5042336;28;20029;-60
2022/09/02 09:45:35;;;;;;;0.88;0.43;;;;;;;;;;5052011;28;20033;-60
2022/09/02 09:48:18;;;;;;;2.47;0.55;;;;;;;;;;5052432;28;20033;-60
2022/09/02 09:50:45;;;;;;;1.15;0.43;;;;;;;;;;5053149;28;20031;-60
2022/09/02 09:53:19;;;;;;;0.93;0.50;;;;;;;;;;5047877;28;20029;-60
2022/09/02 09:55:57;;;;;;;1.42;0.75;;;;;;;;;;5051497;28;20061;-60
2022/09/02 09:58:33;;;;;;;2.60;0.68;;;;;;;;;;5052745;28;20056;-60
2022/09/02 10:01:10;;;;;;;1.45;0.60;;;;;;;;;;5051507;28;20501;-60
2022/09/02 10:03:36;;;;;;;0.80;0.50;;;;;;;;;;5052540;28;20028;-60
2022/09/02 10:06:17;;;;;;;1.75;0.60;;;;;;;;;;5053226;28;20025;-60
2022/09/02 10:08:51;;;;;;;1.73;0.52;;;;;;;;;;5051881;28;20088;-60
2022/09/02 10:11:21;;;;;;;1.17;0.40;;;;;;;;;;5049858;28;20057;-60
2022/09/02 10:13:48;;;;;;;1.00;0.50;;;;;;;;;;5048508;28;20028;-59
2022/09/02 10:16:31;;;;;;;1.15;0.55;;;;;;;;;;5047942;28;20369;-60
2022/09/02 10:19:06;;;;;;;0.93;0.43;;;;;;;;;;5049314;28;20037;-60
2022/09/02 10:21:54;;;;;;;1.50;0.40;;;;;;;;;;5051656;28;20032;-59
2022/09/02 10:24:35;;;;;;;2.75;0.50;;;;;;;;;;5049054;28;20033;-59
2022/09/02 10:27:07;;;;;;;3.85;0.55;;;;;;;;;;5049585;28;20036;-59
2022/09/02 10:29:54;;;;;;;1.10;0.40;;;;;;;;;;5044025;28;20028;-59
2022/09/02 10:32:30;;;;;;;2.88;0.60;;;;;;;;;;5045390;28;20116;-59
2022/09/02 10:35:11;;;;;;;1.25;0.57;;;;;;;;;;5042021;28;20086;-61
2022/09/02 10:37:55;;;;;;;0.93;0.30;;;;;;;;;;5051331;28;20057;-60
2022/09/02 10:40:36;;;;;;;2.40;0.50;;;;;;;;;;5050367;28;20455;-60
2022/09/02 10:43:06;;;;;;;1.13;0.40;;;;;;;;;;5050348;28;20082;-60
2022/09/02 10:45:42;;;;;;;0.98;0.40;;;;;;;;;;5050377;28;20090;-60
2022/09/02 10:48:15;;;;;;;2.88;0.43;;;;;;;;;;5051204;28;20484;-59
2022/09/02 10:51:04;;;;;;;0.70;0.40;;;;;;;;;;5047252;28;20030;-60
2022/09/02 10:53:39;;;;;;;1.75;0.45;;;;;;;;;;5045232;28;20038;-59
2022/09/02 10:56:07;;;;;;;1.55;0.40;;;;;;;;;;5050180;28;20040;-59
2022/09/02 10:58:37;;;;;;;1.38;0.47;;;;;;;;;;5049095;28;20388;-60
2022/09/02 11:01:06;;;;;;;2.83;0.40;;;;;;;;;;5048871;28;20053;-60
2022/09/02 11:03:34;;;;;;;0.88;0.30;;;;;;;;;;5043277;28;20511;-60
2022/09/02 11:06:15;;;;;;;2.20;0.40;;;;;;;;;;5049307;28;20069;-60
2022/09/02 11:08:47;;;;;;;0.90;0.50;;;;;;;;;;5049212;28;20029;-60
2022/09/02 11:11:20;;;;;;;1.67;0.55;;;;;;;;;;5049344;28;20120;-60
2022/09/02 11:14:09;;;;;;;1.98;0.68;;;;;;;;;;5049507;28;20037;-59
2022/09/02 11:16:36;;;;;;;1.23;0.50;;;;;;;;;;5050900;28;20139;-60
2022/09/02 11:19:14;;;;;;;2.13;0.50;;;;;;;;;;5051290;28;20025;-60
2022/09/02 11:21:43;;;;;;;0.82;0.50;;;;;;;;;;5051316;28;20106;-60
2022/09/02 11:24:14;;;;;;;1.05;0.60;;;;;;;;;;5048798;28;20411;-60
2022/09/02 11:26:49;;;;;;;1.63;0.40;;;;;;;;;;5047136;28;20430;-60
2022/09/02 11:29:18;;;;;;;1.55;0.57;;;;;;;;;;5050664;28;20104;-59
2022/09/02 11:31:47;;;;;;;3.67;0.77;;;;;;;;;;5046055;28;20021;-59
2022/09/02 11:34:34;;;;;;;1.35;0.47;;;;;;;;;;5045172;28;20021;-59
2022/09/02 11:37:10;;;;;;;2.00;0.50;;;;;;;;;;5049931;28;20483;-60
2022/09/02 11:39:42;;;;;;;3.95;0.88;;;;;;;;;;5041997;28;20463;-61
2022/09/02 11:42:15;;;;;;;5.65;0.95;;;;;;;;;;5049245;28;20381;-61
2022/09/02 11:44:41;;;;;;;4.68;0.40;;;;;;;;;;5051743;28;20040;-60
2022/09/02 11:47:14;;;;;;;0.60;0.40;;;;;;;;;;5048179;28;20397;-60
2022/09/02 11:49:40;;;;;;;0.73;0.32;;;;;;;;;;5049130;28;20021;-60
2022/09/02 11:52:09;;;;;;;0.95;0.50;;;;;;;;;;5050426;28;20441;-60
2022/09/02 11:54:40;;;;;;;0.73;0.30;;;;;;;;;;5048389;28;20389;-60
2022/09/02 11:57:10;;;;;;;1.90;0.43;;;;;;;;;;5049159;28;20040;-60
2022/09/02 11:59:48;;;;;;;1.00;0.50;;;;;;;;;;5049587;28;20028;-60
2022/09/02 12:02:31;;;;;;;0.77;0.50;;;;;;;;;;5051706;28;20765;-60
2022/09/02 12:05:16;;;;;;;2.95;0.50;;;;;;;;;;5051404;28;20036;-61
2022/09/02 12:07:49;;;;;;;4.13;0.40;;;;;;;;;;5054421;28;20104;-60
2022/09/02 12:10:34;;;;;;;0.77;0.30;;;;;;;;;;5042262;28;20056;-60
2022/09/02 12:13:01;;;;;;;0.80;0.30;;;;;;;;;;5047681;28;20040;-60
2022/09/02 12:15:27;;;;;;;1.67;0.40;;;;;;;;;;5054756;28;20029;-60
2022/09/02 12:17:57;;;;;;;0.70;0.40;;;;;;;;;;5054945;28;20036;-60
2022/09/02 12:20:36;;;;;;;1.65;0.45;;;;;;;;;;5050477;28;20055;-61
2022/09/02 12:23:02;;;;;;;1.50;0.60;;;;;;;;;;5053074;28;20017;-60
2022/09/02 12:25:37;;;;;;;2.28;0.40;;;;;;;;;;5055049;28;20538;-60
2022/09/02 12:28:14;;;;;;;0.63;0.35;;;;;;;;;;5053752;28;20037;-59
2022/09/02 12:31:01;;;;;;;0.90;0.50;;;;;;;;;;5054145;28;20051;-60
2022/09/02 12:33:31;;;;;;;1.20;0.25;;;;;;;;;;5043966;28;20017;-60
2022/09/02 12:35:58;;;;;;;1.63;0.63;;;;;;;;;;5047573;28;20044;-59
2022/09/02 12:38:30;;;;;;;1.35;0.38;;;;;;;;;;5055053;28;20078;-60
2022/09/02 12:41:11;;;;;;;1.30;0.43;;;;;;;;;;5054515;28;20036;-60
2022/09/02 12:43:46;;;;;;;0.60;0.40;;;;;;;;;;5052954;28;20286;-60
2022/09/02 12:46:12;;;;;;;1.00;0.43;;;;;;;;;;5054169;28;20033;-60
2022/09/02 12:48:44;;;;;;;3.67;0.55;;;;;;;;;;5054832;28;20032;-60
2022/09/02 12:51:10;;;;;;;1.35;0.45;;;;;;;;;;5054170;28;20028;-60
2022/09/02 12:53:39;;;;;;;2.92;0.70;;;;;;;;;;5054474;28;20036;-61
2022/09/02 12:56:16;;;;;;;0.80;0.38;;;;;;;;;;5054853;28;20045;-60
2022/09/02 12:58:47;;;;;;;0.95;0.55;;;;;;;;;;5054225;28;20082;-60
2022/09/02 13:01:24;;;;;;;1.30;0.43;;;;;;;;;;5052523;28;20033;-60
2022/09/02 13:03:56;;;;;;;4.78;0.55;;;;;;;;;;5051691;28;20266;-60
2022/09/02 13:06:34;;;;;;;1.77;0.60;;;;;;;;;;5052565;28;20029;-61
2022/09/02 13:09:19;;;;;;;1.25;0.30;;;;;;;;;;5045875;28;20049;-60
2022/09/02 13:12:06;;;;;;;0.65;0.40;;;;;;;;;;5049081;28;20029;-60
2022/09/02 13:14:45;;;;;;;0.60;0.40;;;;;;;;;;5053246;28;20056;-58
2022/09/02 13:17:30;;;;;;;1.35;0.47;;;;;;;;;;5045866;28;20033;-59
2022/09/02 13:20:19;;;;;;;2.08;0.52;;;;;;;;;;5053745;28;20037;-59
2022/09/02 13:22:50;;;;;;;0.50;0.22;;;;;;;;;;5053630;28;20492;-59
2022/09/02 13:25:27;;;;;;;0.82;0.30;;;;;;;;;;5050587;28;20025;-59
2022/09/02 13:28:08;;;;;;;2.63;0.30;;;;;;;;;;5048201;28;20037;-59
2022/09/02 13:30:55;;;;;;;5.63;0.45;;;;;;;;;;5047834;28;20028;-60
2022/09/02 13:33:21;;;;;;;1.35;0.63;;;;;;;;;;5045855;28;20041;-60
2022/09/02 13:35:53;;;;;;;2.42;0.50;;;;;;;;;;5053969;28;20044;-59
2022/09/02 13:38:23;;;;;;;1.00;0.60;;;;;;;;;;5050436;28;20035;-59
2022/09/02 13:40:48;;;;;;;1.08;0.25;;;;;;;;;;5054942;28;20306;-59
2022/09/02 13:43:14;;;;;;;1.98;0.68;;;;;;;;;;5049915;28;20029;-59
2022/09/02 13:45:41;;;;;;;1.30;0.50;;;;;;;;;;5052950;28;20044;-58
2022/09/02 13:48:14;;;;;;;0.77;0.30;;;;;;;;;;5049821;28;20103;-59
2022/09/02 13:50:44;;;;;;;1.45;0.43;;;;;;;;;;5043587;28;20029;-59
2022/09/02 13:53:13;;;;;;;2.30;0.43;;;;;;;;;;5046306;28;20167;-59
2022/09/02 13:55:39;;;;;;;0.88;0.40;;;;;;;;;;5054180;28;20450;-59
2022/09/02 13:58:09;;;;;;;2.72;0.30;;;;;;;;;;5050100;28;20687;-59
2022/09/02 14:00:39;;;;;;;1.48;0.52;;;;;;;;;;5050323;28;20036;-59
2022/09/02 14:03:14;;;;;;;2.47;0.30;;;;;;;;;;5049420;28;20056;-59
2022/09/02 14:05:42;;;;;;;2.13;0.50;;;;;;;;;;5042316;28;20021;-58
2022/09/02 14:08:12;;;;;;;2.83;0.40;;;;;;;;;;5053363;28;20537;-58
2022/09/02 14:10:40;;;;;;;2.58;0.70;;;;;;;;;;5044400;28;20071;-58
2022/09/02 14:13:07;;;;;;;1.35;0.55;;;;;;;;;;5045653;28;20069;-58
2022/09/02 14:15:33;;;;;;;1.75;0.50;;;;;;;;;;5046599;28;20020;-59
2022/09/02 14:18:08;;;;;;;1.40;0.45;;;;;;;;;;5050232;28;20421;-59
2022/09/02 14:20:35;;;;;;;2.75;0.40;;;;;;;;;;5041456;28;20092;-59
2022/09/02 14:23:01;;;;;;;1.00;0.40;;;;;;;;;;5041101;28;20025;-59
2022/09/02 14:25:29;;;;;;;6.22;0.65;;;;;;;;;;5043413;28;20111;-59
2022/09/02 14:27:57;;;;;;;1.98;0.40;;;;;;;;;;5049688;28;20036;-58
2022/09/02 14:30:52;;;;;;;2.13;0.38;;;;;;;;;;5038802;28;20112;-59
2022/09/02 14:33:37;;;;;;;0.88;0.30;;;;;;;;;;5033690;28;20041;-58
2022/09/02 14:36:07;;;;;;;1.02;0.40;;;;;;;;;;5042039;28;20083;-58
2022/09/02 14:38:48;;;;;;;2.60;0.40;;;;;;;;;;5062851;28;20047;-59
2022/09/02 14:41:17;;;;;;;3.70;0.60;;;;;;;;;;5041586;28;20025;-58
2022/09/02 14:43:48;;;;;;;5.35;0.50;;;;;;;;;;5040144;28;20028;-59
2022/09/02 14:46:24;;;;;;;0.35;0.30;;;;;;;;;;5042713;28;20112;-58
2022/09/02 14:48:54;;;;;;;0.70;0.47;;;;;;;;;;5041859;28;20021;-59
2022/09/02 14:51:20;;;;;;;0.70;0.40;;;;;;;;;;5041379;28;20031;-58
2022/09/02 14:53:46;;;;;;;1.40;0.50;;;;;;;;;;5040695;28;20485;-58
2022/09/02 14:56:12;;;;;;;1.00;0.50;;;;;;;;;;5041202;28;20029;-58
2022/09/02 14:58:38;;;;;;;1.20;0.40;;;;;;;;;;5039738;28;20025;-59
2022/09/02 15:01:07;;;;;;;0.88;0.35;;;;;;;;;;5041330;28;20036;-58